Time;durP1;ratioP1;P1;durP2;ratioP2;P2;SDS_P1;SDS_P2;PMS_P1;PMS_P2;Temp;Humidity;BMP_temperature;BMP_pressure;BME280_temperature;BME280_humidity;BME280_pressure;Samples;Min_cycle;Max_cycle;Signal;HPM_P1;HPM_P2
2022/04/19 00:00:57;;;;;;;13.43;8.63;;;8.30;82.40;;;;;;5079155;28;20070;-72
2022/04/19 00:03:23;;;;;;;14.77;9.25;;;8.20;84.10;;;;;;5084409;28;20131;-72
2022/04/19 00:05:49;;;;;;;17.08;10.25;;;8.10;85.50;;;;;;5097459;28;20052;-72
2022/04/19 00:08:16;;;;;;;17.02;10.85;;;8.00;85.60;;;;;;5097036;28;20101;-72
2022/04/19 00:10:42;;;;;;;15.43;10.70;;;7.90;87.80;;;;;;5067093;28;20473;-72
2022/04/19 00:13:10;;;;;;;13.48;9.73;;;7.90;87.80;;;;;;5081928;28;20095;-72
2022/04/19 00:15:38;;;;;;;16.00;9.70;;;7.80;88.30;;;;;;5083301;28;20067;-72
2022/04/19 00:18:05;;;;;;;14.88;9.38;;;7.70;88.50;;;;;;5065736;28;20039;-72
2022/04/19 00:20:35;;;;;;;19.33;8.88;;;7.60;89.00;;;;;;5082511;28;20410;-72
2022/04/19 00:23:03;;;;;;;13.27;9.05;;;7.60;90.50;;;;;;5075144;28;20032;-72
2022/04/19 00:25:29;;;;;;;12.68;8.45;;;7.50;90.40;;;;;;5084416;28;20109;-72
2022/04/19 00:27:54;;;;;;;13.57;8.45;;;7.50;90.30;;;;;;5080758;28;20040;-72
2022/04/19 00:30:20;;;;;;;12.60;8.38;;;7.40;90.30;;;;;;5085990;28;20501;-72
2022/04/19 00:32:46;;;;;;;16.00;10.13;;;7.50;90.30;;;;;;5087344;28;21193;-72
2022/04/19 00:35:13;;;;;;;17.95;9.68;;;7.40;90.50;;;;;;5069639;28;20032;-72
2022/04/19 00:37:39;;;;;;;17.15;9.93;;;7.40;90.90;;;;;;5085027;28;20564;-72
2022/04/19 00:40:08;;;;;;;11.40;8.98;;;7.40;91.00;;;;;;5086420;28;20032;-72
2022/04/19 00:42:35;;;;;;;14.48;9.70;;;7.30;91.10;;;;;;5087540;28;20139;-72
2022/04/19 00:45:07;;;;;;;13.48;9.45;;;7.30;91.40;;;;;;5071558;28;20046;-72
2022/04/19 00:47:34;;;;;;;17.95;9.85;;;7.20;91.60;;;;;;5086666;28;20742;-72
2022/04/19 00:50:01;;;;;;;14.75;8.98;;;6.90;91.50;;;;;;5082274;28;20036;-72
2022/04/19 00:52:31;;;;;;;13.43;9.63;;;7.20;91.60;;;;;;5071385;28;20067;-72
2022/04/19 00:54:59;;;;;;;15.30;9.65;;;7.20;91.70;;;;;;5084556;28;20059;-72
2022/04/19 00:57:25;;;;;;;14.45;9.38;;;7.20;91.90;;;;;;5089085;28;20074;-72
2022/04/19 00:59:56;;;;;;;15.85;9.18;;;7.20;92.20;;;;;;5086738;28;20032;-72
2022/04/19 01:02:22;;;;;;;15.88;10.13;;;7.10;92.70;;;;;;5083661;28;20044;-72
2022/04/19 01:04:49;;;;;;;15.73;10.38;;;7.10;92.80;;;;;;5066185;28;20413;-73
2022/04/19 01:07:18;;;;;;;17.23;10.43;;;7.00;92.90;;;;;;5101406;28;20040;-72
2022/04/19 01:09:45;;;;;;;15.80;11.05;;;7.00;93.10;;;;;;5086855;28;20044;-72
2022/04/19 01:14:57;;;;;;;14.70;9.65;;;6.90;94.10;;;;;;5081435;28;20183;-72
2022/04/19 01:17:23;;;;;;;18.13;10.35;;;6.90;93.70;;;;;;5069508;28;20050;-72
2022/04/19 01:19:50;;;;;;;16.17;9.65;;;6.80;93.60;;;;;;5085828;28;20040;-72
2022/04/19 01:22:15;;;;;;;16.00;10.15;;;6.80;93.60;;;;;;5086203;28;20047;-72
2022/04/19 01:24:43;;;;;;;21.95;10.23;;;6.80;93.60;;;;;;5050224;28;20448;-72
2022/04/19 01:27:09;;;;;;;14.43;9.45;;;6.80;93.80;;;;;;5102562;28;20059;-72
2022/04/19 01:29:36;;;;;;;14.32;9.52;;;6.80;93.90;;;;;;5084490;28;20532;-72
2022/04/19 01:32:03;;;;;;;15.93;10.02;;;6.80;94.00;;;;;;5086128;28;20105;-72
2022/04/19 01:34:29;;;;;;;13.57;9.27;;;6.80;94.10;;;;;;5086456;28;20523;-72
2022/04/19 01:36:55;;;;;;;16.50;10.25;;;6.70;94.20;;;;;;5084136;28;20040;-72
2022/04/19 01:40:16;;;;;;;14.38;10.18;;;6.70;94.20;;;;;;5069344;28;20048;-72
2022/04/19 01:42:07;;;;;;;14.93;9.40;;;6.70;94.30;;;;;;5067811;28;20500;-72
2022/04/19 01:44:34;;;;;;;15.30;11.07;;;6.60;94.40;;;;;;5084366;28;20116;-72
2022/04/19 01:47:07;;;;;;;18.02;10.10;;;6.60;94.50;;;;;;5068001;28;20036;-72
2022/04/19 01:49:34;;;;;;;18.05;11.57;;;6.50;94.70;;;;;;5096489;28;20047;-72
2022/04/19 01:52:02;;;;;;;18.83;11.15;;;6.40;95.20;;;;;;5080940;28;20127;-72
2022/04/19 01:54:29;;;;;;;19.77;12.02;;;6.40;95.40;;;;;;5085513;28;20518;-72
2022/04/19 01:56:55;;;;;;;15.15;10.85;;;6.30;96.40;;;;;;5068462;28;20166;-72
2022/04/19 01:59:22;;;;;;;19.23;11.57;;;6.20;96.60;;;;;;5102569;28;20520;-72
2022/04/19 02:01:48;;;;;;;14.00;9.82;;;6.20;96.60;;;;;;5066155;28;20089;-72
2022/04/19 02:04:18;;;;;;;16.80;11.30;;;6.20;97.20;;;;;;5082725;28;20419;-72
2022/04/19 02:06:44;;;;;;;15.02;10.25;;;6.10;97.30;;;;;;5098834;28;20101;-72
2022/04/19 02:09:10;;;;;;;13.05;9.50;;;6.10;97.90;;;;;;5099032;28;20063;-72
2022/04/19 02:11:37;;;;;;;15.10;10.18;;;6.10;98.40;;;;;;5050253;28;20126;-72
2022/04/19 02:14:04;;;;;;;16.02;9.73;;;6.00;98.00;;;;;;5068518;28;20039;-72
2022/04/19 02:16:31;;;;;;;16.60;9.65;;;6.00;98.00;;;;;;5066768;28;20050;-72
2022/04/19 02:18:57;;;;;;;16.17;9.30;;;6.00;98.00;;;;;;5082612;28;20093;-72
2022/04/19 02:21:23;;;;;;;13.93;9.13;;;5.70;97.90;;;;;;5085267;28;20043;-72
2022/04/19 02:23:50;;;;;;;17.42;9.60;;;6.00;98.10;;;;;;5085770;28;20400;-72
2022/04/19 02:26:15;;;;;;;12.82;8.73;;;5.90;98.20;;;;;;5067018;28;20062;-72
2022/04/19 02:28:45;;;;;;;11.75;8.50;;;5.90;98.30;;;;;;5074184;28;20036;-72
2022/04/19 02:31:11;;;;;;;14.38;9.07;;;5.90;98.50;;;;;;5083899;28;20035;-72
2022/04/19 02:33:36;;;;;;;11.45;7.93;;;5.90;98.40;;;;;;5085135;28;20048;-72
2022/04/19 02:36:03;;;;;;;14.00;8.05;;;5.80;98.70;;;;;;5067172;28;20658;-72
2022/04/19 02:38:29;;;;;;;11.13;8.10;;;5.80;99.40;;;;;;5065033;28;20043;-72
2022/04/19 02:40:55;;;;;;;14.68;9.30;;;5.70;99.50;;;;;;5080947;28;20040;-72
2022/04/19 02:43:21;;;;;;;13.38;8.95;;;5.70;99.70;;;;;;5063481;28;20066;-72
2022/04/19 02:45:46;;;;;;;11.88;8.30;;;5.70;99.50;;;;;;5083143;28;20071;-72
2022/04/19 02:48:12;;;;;;;15.00;8.77;;;5.70;99.90;;;;;;5083746;28;20055;-72
2022/04/19 02:50:48;;;;;;;13.70;9.07;;;5.60;99.80;;;;;;5074845;28;20515;-72
2022/04/19 02:53:14;;;;;;;14.02;8.95;;;5.60;99.80;;;;;;5078064;28;20043;-72
2022/04/19 02:55:39;;;;;;;12.63;8.73;;;5.60;99.70;;;;;;5080544;28;20548;-72
2022/04/19 02:58:08;;;;;;;12.05;8.82;;;5.60;99.80;;;;;;5083561;28;20078;-72
2022/04/19 03:00:34;;;;;;;12.85;8.80;;;5.50;99.70;;;;;;5083102;28;20043;-72
2022/04/19 03:03:00;;;;;;;12.98;9.07;;;5.50;99.90;;;;;;5080074;28;20036;-72
2022/04/19 03:05:26;;;;;;;15.18;8.73;;;5.50;99.90;;;;;;5076467;28;20145;-72
2022/04/19 03:07:52;;;;;;;13.20;9.05;;;5.50;99.90;;;;;;5067553;28;20032;-72
2022/04/19 03:10:17;;;;;;;16.20;9.23;;;5.50;99.90;;;;;;5082944;28;20039;-72
2022/04/19 03:12:43;;;;;;;16.27;9.15;;;5.40;99.90;;;;;;5082985;28;20032;-72
2022/04/19 03:15:12;;;;;;;14.40;9.13;;;5.40;99.90;;;;;;5079797;28;20394;-72
2022/04/19 03:17:40;;;;;;;13.40;9.35;;;5.40;99.90;;;;;;5084212;28;20133;-72
2022/04/19 03:20:09;;;;;;;14.88;9.52;;;5.40;99.90;;;;;;5066525;28;20048;-72
2022/04/19 03:28:09;;;;;;;15.43;8.68;;;5.40;99.90;;;;;;5050884;28;20392;-72
2022/04/19 03:30:35;;;;;;;13.45;8.50;;;5.30;99.90;;;;;;5083334;28;20048;-73
2022/04/19 03:33:01;;;;;;;11.60;8.63;;;5.30;99.90;;;;;;5082352;28;20031;-72
2022/04/19 03:35:27;;;;;;;12.15;8.57;;;5.30;99.90;;;;;;5083522;28;20043;-72
2022/04/19 03:37:53;;;;;;;15.07;8.60;;;5.20;99.90;;;;;;5082510;28;20047;-72
2022/04/19 03:40:18;;;;;;;13.82;8.32;;;5.20;99.90;;;;;;5083781;28;20389;-73
2022/04/19 03:42:44;;;;;;;13.90;9.25;;;5.20;99.90;;;;;;5065679;28;20497;-72
2022/04/19 03:45:10;;;;;;;12.02;8.48;;;5.10;99.90;;;;;;5082195;28;20048;-72
2022/04/19 03:47:36;;;;;;;11.57;8.32;;;5.10;99.90;;;;;;5078210;28;20259;-73
2022/04/19 03:50:07;;;;;;;11.75;8.50;;;5.10;99.90;;;;;;5083360;28;20032;-72
2022/04/19 03:52:36;;;;;;;15.70;8.85;;;5.00;99.90;;;;;;5098503;28;20100;-72
2022/04/19 03:55:02;;;;;;;12.13;8.65;;;5.00;99.90;;;;;;5081819;28;20047;-72
2022/04/19 03:57:28;;;;;;;13.60;8.95;;;5.00;99.90;;;;;;5080884;28;20035;-72
2022/04/19 03:59:54;;;;;;;11.55;8.52;;;4.90;99.90;;;;;;5081994;28;20665;-73
2022/04/19 04:02:20;;;;;;;13.13;9.00;;;5.00;99.90;;;;;;5075396;28;20618;-73
2022/04/19 04:04:46;;;;;;;13.82;9.00;;;4.90;99.90;;;;;;5065230;28;20124;-72
2022/04/19 04:07:12;;;;;;;14.48;8.45;;;4.90;99.90;;;;;;5049047;28;20056;-72
2022/04/19 04:09:38;;;;;;;12.48;8.10;;;4.80;99.90;;;;;;5083407;28;20082;-72
2022/04/19 04:12:13;;;;;;;13.85;9.00;;;4.70;99.90;;;;;;5082530;28;20067;-72
2022/04/19 04:14:41;;;;;;;12.63;8.73;;;4.80;99.90;;;;;;5083498;28;20044;-72
2022/04/19 04:17:07;;;;;;;13.13;8.98;;;4.70;99.90;;;;;;5082732;28;20032;-72
2022/04/19 04:19:33;;;;;;;11.73;7.80;;;4.70;99.90;;;;;;5064898;28;20047;-72
2022/04/19 04:21:58;;;;;;;13.90;8.57;;;4.60;99.90;;;;;;5081655;28;20054;-72
2022/04/19 04:24:25;;;;;;;16.30;9.30;;;4.60;99.90;;;;;;5082734;28;20408;-72
2022/04/19 04:26:50;;;;;;;15.15;9.23;;;4.60;99.90;;;;;;5058731;28;20383;-72
2022/04/19 04:29:16;;;;;;;15.48;9.32;;;4.60;99.90;;;;;;5026927;28;20057;-72
2022/04/19 04:31:42;;;;;;;14.90;9.00;;;4.50;99.90;;;;;;5043493;28;20402;-72
2022/04/19 04:34:08;;;;;;;16.25;9.02;;;4.50;99.90;;;;;;5028522;28;20055;-72
2022/04/19 04:36:34;;;;;;;19.90;9.85;;;4.50;99.90;;;;;;5057831;28;20036;-72
2022/04/19 04:39:00;;;;;;;14.95;8.52;;;4.50;99.90;;;;;;5060121;28;20398;-72
2022/04/19 04:41:25;;;;;;;15.63;9.38;;;4.50;99.90;;;;;;5056547;28;20033;-72
2022/04/19 04:43:51;;;;;;;13.10;9.70;;;4.40;99.90;;;;;;5042707;28;20068;-72
2022/04/19 04:51:45;;;;;;;14.18;8.77;;;4.40;99.90;;;;;;5042096;28;20388;-72
2022/04/19 04:54:11;;;;;;;15.98;9.35;;;4.40;99.90;;;;;;5060509;28;20048;-72
2022/04/19 04:56:37;;;;;;;15.57;9.65;;;4.40;99.90;;;;;;5058969;28;20469;-72
2022/04/19 04:59:03;;;;;;;15.90;9.20;;;4.40;99.90;;;;;;5027917;28;20052;-72
2022/04/19 05:01:28;;;;;;;13.25;9.20;;;4.50;99.90;;;;;;5040993;28;20040;-72
2022/04/19 05:03:54;;;;;;;14.40;9.57;;;4.50;99.90;;;;;;5038559;28;20549;-72
2022/04/19 05:06:20;;;;;;;13.57;8.98;;;4.50;99.90;;;;;;5055401;28;20112;-72
2022/04/19 05:08:46;;;;;;;13.27;10.07;;;4.50;99.90;;;;;;5041110;28;20037;-72
2022/04/19 05:11:11;;;;;;;13.93;8.90;;;4.50;99.90;;;;;;5042814;28;20136;-72
2022/04/19 05:13:37;;;;;;;13.77;9.02;;;4.50;99.90;;;;;;5046516;28;20044;-72
2022/04/19 05:16:03;;;;;;;14.38;9.77;;;4.50;99.90;;;;;;5059964;28;20037;-72
2022/04/19 05:18:31;;;;;;;18.25;8.75;;;4.50;99.90;;;;;;5062543;28;20041;-72
2022/04/19 05:20:57;;;;;;;14.15;9.07;;;4.60;99.90;;;;;;5063416;28;20042;-72
2022/04/19 05:23:22;;;;;;;17.08;8.50;;;4.60;99.90;;;;;;5029666;28;20045;-72
2022/04/19 05:25:48;;;;;;;14.82;9.65;;;4.60;99.90;;;;;;5050317;28;20382;-72
2022/04/19 05:28:14;;;;;;;21.13;8.93;;;4.60;99.90;;;;;;5081547;28;20047;-72
2022/04/19 05:30:40;;;;;;;16.80;9.20;;;4.60;99.90;;;;;;5083741;28;20036;-72
2022/04/19 05:33:06;;;;;;;22.27;9.60;;;4.70;99.90;;;;;;5084621;28;20213;-72
2022/04/19 05:35:32;;;;;;;15.10;10.00;;;4.70;99.90;;;;;;5086391;28;20039;-72
2022/04/19 05:37:59;;;;;;;14.48;10.13;;;4.80;99.90;;;;;;5069880;28;20046;-72
2022/04/19 05:40:25;;;;;;;15.40;9.10;;;4.80;99.90;;;;;;5067597;28;20051;-72
2022/04/19 05:42:51;;;;;;;15.70;9.45;;;4.90;99.90;;;;;;5099390;28;20047;-72
2022/04/19 05:45:17;;;;;;;11.90;9.25;;;5.00;99.90;;;;;;5078477;28;20040;-73
2022/04/19 05:47:43;;;;;;;16.00;10.23;;;5.00;99.90;;;;;;5085025;28;20024;-73
2022/04/19 05:50:10;;;;;;;14.68;9.68;;;5.10;99.90;;;;;;5071769;28;20039;-72
2022/04/19 05:52:36;;;;;;;14.73;10.25;;;5.10;99.90;;;;;;5086011;28;20039;-72
2022/04/19 05:55:03;;;;;;;13.10;9.75;;;5.20;99.90;;;;;;5104994;28;20044;-72
2022/04/19 05:57:29;;;;;;;14.85;10.25;;;5.30;99.90;;;;;;5071602;28;20047;-72
2022/04/19 05:59:55;;;;;;;14.35;9.88;;;5.30;99.90;;;;;;5102069;28;20039;-72
2022/04/19 06:05:05;;;;;;;14.43;9.15;;;5.50;99.90;;;;;;5095888;28;20394;-72
2022/04/19 06:07:31;;;;;;;15.73;10.10;;;5.60;99.90;;;;;;5063720;28;20134;-72
2022/04/19 06:09:58;;;;;;;12.85;8.70;;;5.60;99.90;;;;;;5107558;28;20032;-72
2022/04/19 06:12:24;;;;;;;13.32;9.00;;;5.70;99.90;;;;;;5090603;28;20055;-72
2022/04/19 06:14:49;;;;;;;14.07;8.70;;;5.80;99.90;;;;;;5055078;28;20509;-72
2022/04/19 06:17:21;;;;;;;16.33;9.73;;;5.90;99.90;;;;;;5100832;28;20036;-72
2022/04/19 06:19:47;;;;;;;18.20;9.73;;;6.00;99.90;;;;;;5099582;28;20044;-72
2022/04/19 06:22:13;;;;;;;15.82;9.90;;;6.10;99.90;;;;;;5066739;28;20508;-72
2022/04/19 06:24:39;;;;;;;16.88;10.07;;;6.20;99.90;;;;;;5087025;28;20412;-72
2022/04/19 06:27:05;;;;;;;13.90;9.77;;;6.30;99.90;;;;;;5088666;28;21173;-72
2022/04/19 06:29:31;;;;;;;16.35;8.93;;;6.40;99.90;;;;;;5081263;28;20062;-72
2022/04/19 06:31:57;;;;;;;13.57;8.43;;;6.60;99.90;;;;;;5080310;28;20151;-72
2022/04/19 06:34:22;;;;;;;12.57;8.30;;;6.70;99.90;;;;;;5074682;28;20050;-72
2022/04/19 06:36:48;;;;;;;14.23;9.35;;;6.90;99.90;;;;;;5089401;28;20032;-72
2022/04/19 06:39:14;;;;;;;13.68;8.40;;;7.00;99.90;;;;;;5089758;28;20039;-72
2022/04/19 06:41:41;;;;;;;15.25;8.90;;;7.10;99.90;;;;;;5089520;28;20073;-72
2022/04/19 06:44:08;;;;;;;18.90;9.63;;;7.30;99.90;;;;;;5072456;28;20108;-72
2022/04/19 06:46:36;;;;;;;15.48;9.07;;;7.50;99.90;;;;;;5064626;28;20036;-72
2022/04/19 06:49:03;;;;;;;14.05;8.57;;;7.70;99.90;;;;;;5072837;28;20100;-72
2022/04/19 06:51:30;;;;;;;14.27;8.80;;;7.80;99.90;;;;;;5072486;28;20075;-72
2022/04/19 06:53:57;;;;;;;14.50;8.70;;;8.00;99.90;;;;;;5087696;28;20119;-72
2022/04/19 06:56:23;;;;;;;12.45;8.50;;;8.10;99.90;;;;;;5089440;28;20059;-72
2022/04/19 06:58:49;;;;;;;11.88;8.48;;;8.30;99.90;;;;;;5089759;28;20032;-72
2022/04/19 07:01:15;;;;;;;13.73;8.45;;;8.40;99.90;;;;;;5058542;28;20055;-72
2022/04/19 07:03:40;;;;;;;12.02;8.25;;;8.60;99.90;;;;;;5091368;28;20124;-72
2022/04/19 07:06:06;;;;;;;12.85;8.57;;;8.80;99.90;;;;;;5072792;28;20489;-72
2022/04/19 07:08:33;;;;;;;13.32;7.88;;;9.00;99.90;;;;;;5084946;28;20067;-72
2022/04/19 07:11:00;;;;;;;12.35;8.25;;;9.20;99.90;;;;;;5068612;28;20276;-72
2022/04/19 07:13:27;;;;;;;15.68;8.25;;;9.40;99.90;;;;;;5078041;28;20505;-72
2022/04/19 07:15:53;;;;;;;12.90;7.60;;;9.60;99.90;;;;;;5089323;28;20043;-72
2022/04/19 07:18:23;;;;;;;73.75;14.18;;;9.90;99.90;;;;;;5089267;28;20513;-73
2022/04/19 07:29:02;;;;;;;10.25;7.30;;;14.00;99.90;;;;;;5105180;28;20630;-73
2022/04/19 07:31:28;;;;;;;9.68;7.00;;;14.90;99.90;;;;;;5088924;28;20054;-73
2022/04/19 07:33:54;;;;;;;10.50;6.43;;;15.60;99.30;;;;;;5071646;28;20093;-74
2022/04/19 07:36:20;;;;;;;9.45;6.93;;;16.10;97.40;;;;;;5088675;28;20435;-73
2022/04/19 07:38:46;;;;;;;8.10;6.45;;;16.50;95.70;;;;;;5088592;28;20558;-73
2022/04/19 07:41:12;;;;;;;8.32;6.60;;;16.90;94.60;;;;;;5088039;28;20032;-73
2022/04/19 07:43:38;;;;;;;10.68;6.70;;;17.10;93.70;;;;;;5088727;28;20108;-73
2022/04/19 07:46:10;;;;;;;9.88;6.38;;;17.40;93.10;;;;;;5088768;28;20043;-73
2022/04/19 07:48:36;;;;;;;9.30;6.20;;;17.40;91.30;;;;;;5089014;28;20119;-73
2022/04/19 07:51:02;;;;;;;7.78;6.18;;;17.50;91.00;;;;;;5088592;28;20036;-74
2022/04/19 07:53:27;;;;;;;8.77;6.20;;;17.80;90.70;;;;;;5089189;28;20039;-73
2022/04/19 07:55:57;;;;;;;8.30;5.85;;;17.70;90.30;;;;;;5071976;28;20462;-73
2022/04/19 07:58:23;;;;;;;7.60;6.15;;;18.10;89.50;;;;;;5072177;28;20036;-73
2022/04/19 08:00:49;;;;;;;11.75;7.28;;;18.00;88.00;;;;;;5088748;28;20097;-73
2022/04/19 08:03:15;;;;;;;9.93;6.78;;;18.30;87.70;;;;;;5071630;28;20048;-75
2022/04/19 08:05:41;;;;;;;9.95;5.78;;;18.50;86.00;;;;;;5088929;28;20050;-75
2022/04/19 08:08:07;;;;;;;10.52;6.32;;;18.80;84.70;;;;;;5071562;28;20116;-75
2022/04/19 08:10:33;;;;;;;7.70;6.43;;;19.00;83.50;;;;;;5088598;28;20044;-75
2022/04/19 08:13:00;;;;;;;9.98;6.18;;;18.70;82.40;;;;;;5088905;28;20458;-75
2022/04/19 08:15:26;;;;;;;9.63;6.35;;;19.10;80.50;;;;;;5082202;28;20040;-75
2022/04/19 08:17:52;;;;;;;8.18;6.13;;;19.10;79.70;;;;;;5081938;28;20113;-75
2022/04/19 08:20:18;;;;;;;7.38;5.40;;;19.60;78.90;;;;;;5074569;28;20055;-76
2022/04/19 08:22:47;;;;;;;7.15;5.70;;;19.70;78.00;;;;;;5072239;28;20036;-75
2022/04/19 08:25:12;;;;;;;7.53;5.53;;;19.80;76.40;;;;;;5071564;28;20052;-75
2022/04/19 08:27:42;;;;;;;6.72;5.28;;;19.90;76.00;;;;;;5088029;28;20040;-76
2022/04/19 08:30:08;;;;;;;6.70;5.13;;;19.60;75.00;;;;;;5070891;28;20563;-76
2022/04/19 08:32:35;;;;;;;7.13;4.82;;;19.80;73.90;;;;;;5088404;28;20497;-75
2022/04/19 08:35:00;;;;;;;6.40;4.82;;;19.70;73.40;;;;;;5071158;28;20051;-73
2022/04/19 08:37:34;;;;;;;6.65;4.50;;;19.80;73.40;;;;;;5076052;28;20041;-73
2022/04/19 08:40:01;;;;;;;4.72;4.22;;;19.90;72.00;;;;;;5071148;28;20074;-73
2022/04/19 08:42:29;;;;;;;7.10;4.55;;;20.10;71.40;;;;;;5088375;28;20492;-73
2022/04/19 08:45:00;;;;;;;7.13;4.65;;;20.20;70.80;;;;;;5057550;28;20046;-73
2022/04/19 08:47:27;;;;;;;5.60;3.75;;;20.20;69.90;;;;;;5075515;28;20040;-73
2022/04/19 08:49:54;;;;;;;5.07;3.85;;;20.30;68.60;;;;;;5058762;28;20040;-74
2022/04/19 08:52:20;;;;;;;5.75;3.90;;;20.30;67.20;;;;;;5092542;28;20036;-73
2022/04/19 08:57:32;;;;;;;4.00;3.53;;;20.30;65.80;;;;;;5099471;28;20049;-73
2022/04/19 08:59:59;;;;;;;4.70;4.00;;;20.60;65.90;;;;;;5073072;28;20129;-73
2022/04/19 09:02:27;;;;;;;6.78;4.00;;;20.50;64.30;;;;;;5075666;28;20036;-73
2022/04/19 09:04:54;;;;;;;6.15;3.67;;;20.50;63.50;;;;;;5078563;28;20035;-73
2022/04/19 09:07:20;;;;;;;4.72;2.60;;;20.30;64.90;;;;;;5092037;28;20123;-73
2022/04/19 09:10:00;;;;;;;4.43;2.90;;;20.50;63.60;;;;;;5087737;28;20064;-73
2022/04/19 09:12:27;;;;;;;4.13;3.40;;;20.30;60.90;;;;;;5072505;28;20123;-73
2022/04/19 09:15:00;;;;;;;3.97;2.90;;;20.40;60.30;;;;;;5105085;28;20073;-73
2022/04/19 09:17:35;;;;;;;5.03;3.47;;;20.40;61.30;;;;;;5089980;28;20621;-73
2022/04/19 09:20:12;;;;;;;3.88;3.28;;;20.60;59.70;;;;;;5087890;28;20101;-73
2022/04/19 09:22:39;;;;;;;7.45;3.85;;;20.90;59.30;;;;;;5088711;28;20044;-73
2022/04/19 09:25:25;;;;;;;4.22;3.10;;;20.70;60.80;;;;;;5091242;28;20404;-73
2022/04/19 09:27:54;;;;;;;3.72;2.78;;;20.70;58.80;;;;;;5088019;28;20044;-72
2022/04/19 09:30:39;;;;;;;3.72;2.60;;;20.40;58.30;;;;;;5089685;28;20119;-73
2022/04/19 09:33:10;;;;;;;3.60;2.70;;;20.30;59.30;;;;;;5091009;28;20505;-73
2022/04/19 09:36:03;;;;;;;4.78;2.50;;;20.10;58.60;;;;;;5091457;28;20043;-73
2022/04/19 09:38:41;;;;;;;4.47;2.30;;;20.10;58.60;;;;;;5078323;28;20039;-73
2022/04/19 09:41:13;;;;;;;3.15;2.85;;;20.10;58.80;;;;;;5090777;28;20043;-73
2022/04/19 09:43:39;;;;;;;5.75;3.10;;;20.40;59.70;;;;;;5074082;28;20086;-73
2022/04/19 09:46:08;;;;;;;3.15;2.17;;;20.20;58.80;;;;;;5091273;28;20071;-73
2022/04/19 09:48:36;;;;;;;7.15;2.78;;;19.90;59.30;;;;;;5086556;28;20119;-73
2022/04/19 09:51:07;;;;;;;5.25;2.33;;;20.00;59.50;;;;;;5083039;28;20040;-73
2022/04/19 09:53:47;;;;;;;4.33;2.60;;;19.80;60.00;;;;;;5074379;28;20540;-73
2022/04/19 09:56:20;;;;;;;4.28;2.88;;;19.70;58.10;;;;;;5074330;28;20320;-72
2022/04/19 09:58:48;;;;;;;3.22;2.92;;;19.80;60.70;;;;;;5090325;28;20048;-73
2022/04/19 10:09:34;;;;;;;3.08;2.30;;;20.40;59.30;;;;;;5107836;28;20043;-73
2022/04/19 10:12:06;;;;;;;4.63;3.60;;;20.00;59.50;;;;;;5090558;28;20413;-73
2022/04/19 10:14:33;;;;;;;6.75;2.40;;;20.10;59.20;;;;;;5073945;28;20040;-72
2022/04/19 10:16:59;;;;;;;2.75;2.20;;;20.00;58.90;;;;;;5090469;28;20058;-73
2022/04/19 10:19:27;;;;;;;8.63;2.95;;;19.80;58.20;;;;;;5090759;28;20512;-72
2022/04/19 10:21:54;;;;;;;3.25;2.65;;;19.70;58.90;;;;;;5090167;28;20047;-72
2022/04/19 10:24:20;;;;;;;3.50;2.60;;;19.60;59.70;;;;;;5090665;28;20036;-72
2022/04/19 10:26:48;;;;;;;4.85;2.10;;;19.30;60.00;;;;;;5072728;28;20047;-72
2022/04/19 10:29:28;;;;;;;2.72;2.15;;;19.30;59.40;;;;;;5073265;28;20062;-73
2022/04/19 10:32:06;;;;;;;2.95;2.30;;;19.40;59.90;;;;;;5090535;28;20043;-73
2022/04/19 10:34:34;;;;;;;4.00;2.60;;;19.50;60.80;;;;;;5090322;28;20571;-73
2022/04/19 10:37:12;;;;;;;5.13;2.70;;;19.50;60.10;;;;;;5073586;28;20055;-73
2022/04/19 10:39:59;;;;;;;2.63;2.10;;;19.60;60.60;;;;;;5090372;28;20039;-73
2022/04/19 10:42:35;;;;;;;3.33;2.60;;;19.50;59.70;;;;;;5073824;28;20028;-72
2022/04/19 10:45:24;;;;;;;4.93;2.42;;;19.50;60.50;;;;;;5089724;28;20085;-73
2022/04/19 10:47:53;;;;;;;2.88;2.40;;;19.70;59.10;;;;;;5090346;28;20067;-73
2022/04/19 10:50:30;;;;;;;3.83;2.47;;;19.60;59.80;;;;;;5076225;28;20054;-73
2022/04/19 10:53:00;;;;;;;3.55;2.17;;;19.50;59.50;;;;;;5089862;28;20043;-73
2022/04/19 10:55:28;;;;;;;4.15;2.20;;;19.60;60.50;;;;;;5086457;28;20083;-72
2022/04/19 10:58:18;;;;;;;4.35;2.03;;;20.10;61.50;;;;;;5099759;28;20067;-72
2022/04/19 11:00:57;;;;;;;2.47;2.05;;;20.20;61.80;;;;;;5077638;28;20051;-73
2022/04/19 11:03:25;;;;;;;4.63;2.38;;;20.30;59.10;;;;;;5089473;28;20036;-73
2022/04/19 11:05:56;;;;;;;3.00;2.15;;;20.30;59.70;;;;;;5089395;28;20071;-72
2022/04/19 11:08:25;;;;;;;6.05;2.58;;;20.20;60.00;;;;;;5089623;28;20097;-73
2022/04/19 11:10:52;;;;;;;4.30;1.90;;;20.20;59.90;;;;;;5089594;28;20043;-72
2022/04/19 11:13:37;;;;;;;6.68;1.92;;;20.00;59.20;;;;;;5089823;28;20118;-73
2022/04/19 11:16:05;;;;;;;4.30;2.03;;;20.00;60.80;;;;;;5077535;28;20040;-73
2022/04/19 11:18:37;;;;;;;3.95;2.10;;;19.80;61.50;;;;;;5106451;28;20093;-72
2022/04/19 11:21:05;;;;;;;7.18;2.30;;;19.60;60.50;;;;;;5089841;28;20040;-72
2022/04/19 11:23:48;;;;;;;2.25;1.85;;;19.60;61.10;;;;;;5089546;28;20044;-72
2022/04/19 11:26:26;;;;;;;2.65;1.70;;;19.50;60.00;;;;;;5076760;28;20044;-72
2022/04/19 11:29:10;;;;;;;2.10;1.67;;;19.40;61.60;;;;;;5089150;28;20485;-73
2022/04/19 11:31:45;;;;;;;3.53;2.15;;;19.50;61.50;;;;;;5079043;28;20093;-73
2022/04/19 11:34:15;;;;;;;3.20;2.25;;;19.60;61.40;;;;;;5090014;28;20115;-72
2022/04/19 11:36:42;;;;;;;2.38;2.00;;;19.60;60.30;;;;;;5079925;28;20040;-73
2022/04/19 11:46:43;;;;;;;2.95;2.22;;;19.70;59.90;;;;;;5101305;28;20043;-72
2022/04/19 11:47:47;;;;;;;2.78;2.47;;;19.50;60.60;;;;;;5088702;28;20036;-72
2022/04/19 11:50:31;;;;;;;2.72;2.30;;;19.60;60.80;;;;;;5089228;28;20064;-73
2022/04/19 11:53:00;;;;;;;2.85;2.20;;;19.50;59.50;;;;;;5088589;28;20089;-72
2022/04/19 11:55:27;;;;;;;11.88;2.50;;;19.40;58.60;;;;;;5089071;28;20051;-73
2022/04/19 11:58:09;;;;;;;3.53;1.92;;;19.40;59.00;;;;;;5088506;28;20523;-73
2022/04/19 12:00:35;;;;;;;7.53;2.42;;;19.40;58.60;;;;;;5072496;28;20080;-72
2022/04/19 12:03:21;;;;;;;2.88;2.10;;;19.30;61.00;;;;;;5088052;28;20115;-73
2022/04/19 12:05:47;;;;;;;3.55;2.00;;;19.30;60.70;;;;;;5071851;28;20306;-72
2022/04/19 12:08:28;;;;;;;2.30;2.03;;;19.50;61.00;;;;;;5089038;28;20040;-72
2022/04/19 12:10:54;;;;;;;3.38;2.55;;;19.60;60.30;;;;;;5079228;28;20036;-72
2022/04/19 12:13:20;;;;;;;5.90;2.55;;;19.70;60.70;;;;;;5084285;28;20036;-72
2022/04/19 12:15:46;;;;;;;4.25;2.78;;;19.80;60.60;;;;;;5064458;28;20080;-72
2022/04/19 12:18:32;;;;;;;3.00;2.30;;;19.60;59.80;;;;;;5065602;28;20069;-72
2022/04/19 12:20:59;;;;;;;3.92;2.80;;;19.70;58.40;;;;;;5080377;28;20115;-72
2022/04/19 12:23:24;;;;;;;7.50;2.78;;;19.70;59.90;;;;;;5092890;28;20044;-72
2022/04/19 12:26:05;;;;;;;3.60;2.53;;;19.80;59.70;;;;;;5092624;28;20348;-72
2022/04/19 12:28:42;;;;;;;4.38;3.22;;;20.00;60.30;;;;;;5092716;28;20137;-72
2022/04/19 12:31:28;;;;;;;3.35;2.33;;;19.90;58.20;;;;;;5092856;28;20047;-72
2022/04/19 12:33:54;;;;;;;3.38;2.60;;;19.90;59.80;;;;;;5092023;28;20143;-72
2022/04/19 12:36:22;;;;;;;3.72;3.00;;;19.90;60.70;;;;;;5075630;28;20044;-72
2022/04/19 12:38:59;;;;;;;6.38;2.70;;;19.90;58.90;;;;;;5092239;28;20135;-72
2022/04/19 12:41:40;;;;;;;3.22;2.47;;;20.00;58.40;;;;;;5076089;28;20048;-72
2022/04/19 12:44:13;;;;;;;5.60;2.65;;;20.10;58.70;;;;;;5075234;28;20105;-72
2022/04/19 12:46:47;;;;;;;3.38;2.80;;;20.20;57.70;;;;;;5089534;28;20115;-72
2022/04/19 12:49:25;;;;;;;7.07;3.22;;;20.30;60.60;;;;;;5080371;28;20055;-73
2022/04/19 12:52:17;;;;;;;6.53;2.80;;;20.30;59.10;;;;;;5081350;28;20040;-73
2022/04/19 12:54:47;;;;;;;10.68;3.17;;;20.40;62.00;;;;;;5087689;28;20114;-73
2022/04/19 12:57:15;;;;;;;4.28;2.80;;;20.30;58.20;;;;;;5095716;28;20099;-73
2022/04/19 12:59:43;;;;;;;4.40;2.80;;;20.30;59.70;;;;;;5075891;28;20092;-73
2022/04/19 13:02:10;;;;;;;4.47;2.92;;;20.50;58.60;;;;;;5085924;28;20536;-73
2022/04/19 13:04:38;;;;;;;4.90;3.20;;;20.50;57.40;;;;;;5097337;28;20051;-73
2022/04/19 13:12:33;;;;;;;6.38;3.13;;;20.70;57.50;;;;;;5101512;28;20035;-72
2022/04/19 13:15:01;;;;;;;6.38;3.00;;;20.70;57.60;;;;;;5099302;28;20430;-73
2022/04/19 13:17:30;;;;;;;4.32;3.20;;;20.80;58.10;;;;;;5063035;28;20043;-72
2022/04/19 13:19:56;;;;;;;5.70;3.00;;;20.90;57.20;;;;;;5086513;28;20042;-72
2022/04/19 13:22:22;;;;;;;3.10;2.47;;;21.00;58.40;;;;;;5061138;28;20035;-72
2022/04/19 13:24:50;;;;;;;8.98;2.75;;;21.00;57.50;;;;;;5081368;28;20044;-72
2022/04/19 13:27:16;;;;;;;2.65;2.35;;;21.10;57.30;;;;;;5093107;28;20048;-72
2022/04/19 13:29:43;;;;;;;4.18;2.58;;;21.20;58.40;;;;;;5099495;28;20040;-72
2022/04/19 13:32:10;;;;;;;3.88;2.72;;;21.10;57.30;;;;;;5094497;28;20052;-72
2022/04/19 13:34:36;;;;;;;3.50;2.40;;;21.10;56.20;;;;;;5084564;28;20070;-72
2022/04/19 13:37:03;;;;;;;5.38;2.60;;;21.30;56.30;;;;;;5078081;28;20508;-72
2022/04/19 13:39:29;;;;;;;4.75;2.67;;;21.30;56.50;;;;;;5093474;28;20193;-72